Time;durP1;ratioP1;P1;durP2;ratioP2;P2;SDS_P1;SDS_P2;PMS_P1;PMS_P2;Temp;Humidity;BMP_temperature;BMP_pressure;BME280_temperature;BME280_humidity;BME280_pressure;Samples;Min_cycle;Max_cycle;Signal;HPM_P1;HPM_P2
2022/05/24 00:04:22;;;;;;;0.10;0.10;;;16.80;68.40;;;15.57;54.73;99460.72;10217856;28;97007;-85
2022/05/24 00:09:26;;;;;;;0.50;0.30;;;16.80;68.20;;;15.57;54.93;99467.94;10254566;28;98166;-85
2022/05/24 00:19:51;;;;;;;0.17;0.10;;;16.70;68.60;;;15.51;55.16;99466.97;10288650;28;97348;-84
2022/05/24 00:24:56;;;;;;;0.32;0.10;;;16.70;68.60;;;15.52;55.26;99449.84;10257824;28;96579;-84
2022/05/24 00:30:00;;;;;;;0.20;0.10;;;16.70;68.80;;;15.55;55.05;99454.78;10287393;28;96578;-84
2022/05/24 00:35:03;;;;;;;0.00;0.00;;;16.70;68.50;;;15.56;54.68;99451.06;10230661;28;97371;-84
2022/05/24 00:40:12;;;;;;;0.17;0.10;;;16.80;67.60;;;15.56;54.97;99445.72;10256513;28;96521;-84
2022/05/24 00:45:34;;;;;;;0.00;0.00;;;16.80;68.10;;;15.58;55.06;99440.13;10236634;28;96611;-83
2022/05/24 00:50:47;;;;;;;0.13;0.10;;;16.90;68.40;;;15.61;54.96;99429.81;10237003;28;96625;-84
2022/05/24 00:56:03;;;;;;;0.13;0.13;;;16.90;67.60;;;15.61;55.04;99439.72;10231623;28;96511;-84
2022/05/24 01:01:33;;;;;;;0.20;0.10;;;16.90;67.30;;;15.60;55.21;99438.88;10210041;28;96909;-84
2022/05/24 01:06:36;;;;;;;0.10;0.10;;;17.00;67.90;;;15.58;55.51;99451.66;10222033;28;97035;-84
2022/05/24 01:11:45;;;;;;;0.10;0.10;;;16.90;68.30;;;15.53;55.31;99435.41;10216463;28;96905;-84
2022/05/24 01:16:49;;;;;;;0.17;0.10;;;16.90;67.80;;;15.51;55.42;99408.88;10216372;28;97079;-84
2022/05/24 01:21:59;;;;;;;0.38;0.20;;;16.90;67.70;;;15.50;55.36;99417.13;10211609;28;97965;-83
2022/05/24 01:27:02;;;;;;;0.20;0.13;;;16.90;68.00;;;15.51;55.46;99418.75;10253518;28;96539;-84
2022/05/24 01:37:31;;;;;;;1.08;0.20;;;16.80;69.40;;;15.53;55.13;99427.38;10204934;28;96604;-84
2022/05/24 01:42:34;;;;;;;0.30;0.25;;;16.80;68.50;;;15.55;55.34;99435.22;10195338;28;96592;-83
2022/05/24 01:47:42;;;;;;;0.32;0.32;;;16.80;69.30;;;15.55;55.45;99452.09;10242835;28;96768;-84
2022/05/24 01:52:54;;;;;;;0.10;0.10;;;16.80;69.30;;;15.52;55.14;99457.88;10211459;28;97008;-83
2022/05/24 01:58:02;;;;;;;0.40;0.22;;;16.70;69.10;;;15.49;55.36;99471.72;10202825;28;96616;-84
2022/05/24 02:03:06;;;;;;;0.03;0.00;;;16.70;69.20;;;15.48;55.57;99475.44;10236221;28;97204;-83
2022/05/24 02:08:11;;;;;;;0.10;0.10;;;16.70;69.10;;;15.44;55.69;99461.66;10268277;28;96560;-83
2022/05/24 02:13:24;;;;;;;0.22;0.20;;;16.70;68.70;;;15.42;55.64;99452.22;10267390;28;96729;-84
2022/05/24 02:18:30;;;;;;;2.88;0.40;;;16.70;68.60;;;15.40;56.31;99439.03;10267531;28;97234;-84
2022/05/24 02:23:48;;;;;;;0.45;0.45;;;16.70;69.70;;;15.40;56.65;99433.66;10248172;28;97275;-83
2022/05/24 02:28:53;;;;;;;0.13;0.13;;;16.70;70.40;;;15.40;56.56;99459.63;10287931;28;96597;-83
2022/05/24 02:33:56;;;;;;;0.63;0.30;;;16.70;70.70;;;15.34;57.89;99465.84;10261904;28;96707;-83
2022/05/24 02:38:59;;;;;;;0.13;0.10;;;16.60;71.60;;;15.27;60.21;99469.38;10242518;28;96515;-83
2022/05/24 02:44:16;;;;;;;1.95;0.65;;;16.50;75.20;;;15.16;61.84;99485.31;10252935;28;97186;-85
2022/05/24 02:49:19;;;;;;;0.25;0.25;;;16.50;76.90;;;14.92;64.86;99497.59;10287205;28;97380;-86
2022/05/24 02:54:22;;;;;;;0.10;0.10;;;16.30;81.10;;;14.64;66.98;99488.03;10265292;28;96812;-88
2022/05/24 02:59:24;;;;;;;0.20;0.20;;;16.00;86.40;;;14.33;68.29;99486.03;10246106;28;96619;-88
2022/05/24 03:04:28;;;;;;;0.20;0.10;;;15.70;87.20;;;14.01;70.82;99506.44;10244749;28;97183;-87
2022/05/24 03:09:36;;;;;;;2.73;0.70;;;15.40;94.50;;;13.66;73.30;99516.50;10252374;28;96620;-89
2022/05/24 03:14:39;;;;;;;0.10;0.10;;;15.00;99.20;;;13.36;74.69;99519.53;10253888;28;96547;-91
2022/05/24 03:19:44;;;;;;;0.50;0.43;;;14.70;99.90;;;13.13;75.56;99517.22;10197844;28;96648;-91
2022/05/24 03:24:47;;;;;;;0.30;0.17;;;14.40;99.90;;;12.98;76.39;99518.38;10240254;28;96472;-91
2022/05/24 03:29:51;;;;;;;0.47;0.37;;;14.20;99.90;;;12.88;77.97;99520.59;10233041;28;96855;-95
2022/05/24 03:34:54;;;;;;;0.73;0.33;;;14.10;99.90;;;12.82;79.04;99524.88;10257669;28;97172;-90
2022/05/24 03:39:58;;;;;;;0.30;0.30;;;14.10;99.90;;;12.78;80.21;99529.81;10221275;28;96488;-89
2022/05/24 03:45:03;;;;;;;0.10;0.10;;;14.10;99.90;;;12.71;81.57;99549.44;10239796;28;97514;-89
2022/05/24 03:50:08;;;;;;;0.00;0.00;;;14.00;99.90;;;12.67;82.11;99558.88;10250988;28;96906;-90
2022/05/24 03:55:11;;;;;;;0.33;0.30;;;14.00;99.90;;;12.61;82.83;99554.31;10256456;28;96501;-90
2022/05/24 04:00:18;;;;;;;0.70;0.20;;;14.00;99.90;;;12.55;83.87;99551.41;10234908;28;98773;-90
2022/05/24 04:05:21;;;;;;;1.73;0.60;;;13.80;99.90;;;12.55;84.74;99538.09;10220846;28;97812;-91
2022/05/24 04:10:25;;;;;;;0.27;0.10;;;13.80;99.90;;;12.57;85.43;99564.53;10245408;28;96699;-90
2022/05/24 04:15:28;;;;;;;0.33;0.30;;;13.80;99.90;;;12.59;85.93;99568.66;10259633;28;97065;-91
2022/05/24 04:20:32;;;;;;;0.20;0.10;;;13.80;99.90;;;12.61;86.63;99571.13;10259855;28;97121;-91
2022/05/24 04:25:36;;;;;;;1.80;0.20;;;13.90;99.90;;;12.63;86.77;99592.25;10235861;28;97607;-91
2022/05/24 04:30:40;;;;;;;0.23;0.23;;;13.90;99.90;;;12.61;87.24;99587.13;10254990;28;97468;-90
2022/05/24 04:35:47;;;;;;;0.50;0.50;;;13.90;99.90;;;12.53;87.67;99582.78;10254761;28;96583;-90
2022/05/24 04:46:12;;;;;;;0.53;0.40;;;13.80;99.90;;;12.48;88.15;99579.06;10270974;28;96658;-89
2022/05/24 04:51:15;;;;;;;0.50;0.33;;;13.80;99.90;;;12.47;88.16;99578.19;10253230;28;96651;-89
2022/05/24 04:56:18;;;;;;;0.40;0.30;;;13.70;99.90;;;12.45;88.54;99587.41;10239115;28;96608;-88
2022/05/24 05:01:21;;;;;;;0.10;0.10;;;13.70;99.90;;;12.41;88.58;99586.97;10238874;28;97376;-89
2022/05/24 05:06:25;;;;;;;1.00;0.90;;;13.70;99.90;;;12.42;88.95;99578.00;10239732;28;96630;-89
2022/05/24 05:11:28;;;;;;;0.53;0.53;;;13.70;99.90;;;12.45;89.40;99598.91;10266301;28;98290;-89
2022/05/24 05:16:31;;;;;;;0.30;0.30;;;13.70;99.90;;;12.51;89.50;99597.31;10215657;28;97355;-88
2022/05/24 05:21:37;;;;;;;0.20;0.20;;;13.70;99.90;;;12.52;89.72;99593.63;10234556;28;98250;-89
2022/05/24 05:26:39;;;;;;;0.50;0.37;;;13.80;99.90;;;12.54;90.15;99603.06;10221147;28;96889;-88
2022/05/24 05:31:42;;;;;;;0.30;0.30;;;13.80;99.90;;;12.58;90.22;99603.50;10224923;28;98021;-88
2022/05/24 05:36:46;;;;;;;0.17;0.17;;;13.90;99.90;;;12.64;90.68;99615.22;10258528;28;98032;-87
2022/05/24 05:41:49;;;;;;;0.73;0.43;;;13.90;99.90;;;12.63;90.54;99614.41;10262250;28;96770;-88
2022/05/24 05:46:52;;;;;;;0.63;0.63;;;13.90;99.90;;;12.63;90.61;99611.72;10233587;28;96933;-86
2022/05/24 05:51:55;;;;;;;0.93;0.33;;;13.90;99.90;;;12.61;90.91;99619.09;10237599;28;96553;-87
2022/05/24 05:56:58;;;;;;;0.30;0.30;;;13.90;99.90;;;12.58;90.71;99620.31;10207377;28;98479;-93
2022/05/24 06:02:04;;;;;;;0.67;0.43;;;13.80;99.90;;;12.54;90.70;99629.72;10252020;28;96736;-92
2022/05/24 06:07:08;;;;;;;0.90;0.47;;;13.80;99.90;;;12.49;90.62;99640.16;10236593;28;96820;-90
2022/05/24 06:12:12;;;;;;;0.77;0.40;;;13.80;99.90;;;12.45;90.74;99628.22;10254029;28;97321;-91
2022/05/24 06:17:15;;;;;;;0.50;0.40;;;13.70;99.90;;;12.43;91.09;99624.94;10240443;28;98577;-91
2022/05/24 06:22:19;;;;;;;1.63;0.83;;;13.70;99.90;;;12.47;91.76;99638.66;10238097;28;97507;-90
2022/05/24 06:27:22;;;;;;;1.27;0.73;;;13.70;99.90;;;12.49;92.06;99644.66;10249708;28;96643;-91
2022/05/24 06:32:25;;;;;;;0.60;0.60;;;13.70;99.90;;;12.48;92.02;99641.16;10253232;28;97165;-90
2022/05/24 06:37:30;;;;;;;0.77;0.40;;;13.70;99.90;;;12.51;92.54;99640.75;10268137;28;98166;-91
2022/05/24 06:42:34;;;;;;;1.47;0.80;;;13.70;99.90;;;12.53;92.80;99643.22;10253241;28;96618;-89
2022/05/24 06:47:38;;;;;;;0.83;0.73;;;13.80;99.90;;;12.55;93.52;99651.88;10244090;28;96589;-90
2022/05/24 06:52:42;;;;;;;1.10;0.87;;;13.70;99.90;;;12.58;94.00;99648.81;10231115;28;97312;-89
2022/05/24 06:57:50;;;;;;;0.33;0.33;;;13.80;99.90;;;12.62;94.16;99647.41;10265727;28;96624;-90
2022/05/24 07:03:12;;;;;;;1.20;1.10;;;13.80;99.90;;;12.65;94.25;99636.34;10267949;28;96655;-89
2022/05/24 07:08:16;;;;;;;1.00;0.57;;;13.90;99.90;;;12.63;94.22;99637.56;10253061;28;96736;-90
2022/05/24 07:13:20;;;;;;;0.30;0.30;;;13.90;99.90;;;12.66;94.48;99640.69;10249360;28;96662;-90
2022/05/24 07:18:25;;;;;;;0.80;0.60;;;13.90;99.90;;;12.70;94.96;99628.59;10248028;28;96951;-89
2022/05/24 07:23:28;;;;;;;0.50;0.47;;;13.90;99.90;;;12.80;95.27;99641.56;10253900;28;96700;-89
2022/05/24 07:28:32;;;;;;;1.27;0.87;;;14.00;99.90;;;12.88;95.25;99636.06;10256903;28;96530;-90
2022/05/24 07:33:36;;;;;;;0.40;0.30;;;14.10;99.90;;;12.96;95.21;99643.13;10265661;28;96646;-89
2022/05/24 07:38:39;;;;;;;1.20;1.07;;;14.20;99.90;;;13.03;95.39;99634.13;10241698;28;96820;-89
2022/05/24 07:49:08;;;;;;;0.67;0.67;;;14.30;99.90;;;13.29;95.46;99620.09;10262450;28;97475;-90
2022/05/24 07:54:11;;;;;;;0.47;0.37;;;14.40;99.90;;;13.43;95.58;99636.97;10229570;28;97047;-91
2022/05/24 07:59:13;;;;;;;1.27;0.77;;;14.60;99.90;;;13.51;94.64;99636.00;10233220;28;96564;-90
2022/05/24 08:04:18;;;;;;;0.20;0.20;;;14.60;99.90;;;13.65;94.60;99646.50;10251470;28;96647;-87
2022/05/24 08:09:21;;;;;;;1.33;0.50;;;14.70;99.90;;;13.74;94.26;99641.00;10235216;28;96594;-89
2022/05/24 08:14:24;;;;;;;1.07;0.40;;;14.80;99.90;;;13.74;93.31;99643.66;10231886;28;96628;-89
2022/05/24 08:19:28;;;;;;;1.03;0.73;;;14.90;99.90;;;13.79;92.90;99641.19;10264741;28;97215;-90
2022/05/24 08:24:32;;;;;;;0.80;0.50;;;14.90;99.90;;;13.90;92.59;99629.91;10246149;28;98248;-88
2022/05/24 08:29:35;;;;;;;0.43;0.40;;;15.00;99.90;;;13.93;91.84;99641.03;10264114;28;96765;-88
2022/05/24 08:34:39;;;;;;;0.77;0.77;;;15.10;99.90;;;14.04;92.19;99649.47;10232986;28;96529;-88
2022/05/24 08:39:43;;;;;;;0.73;0.63;;;15.10;99.90;;;14.09;91.36;99650.50;10271155;28;96649;-88
2022/05/24 08:50:37;;;;;;;0.47;0.40;;;15.30;99.90;;;14.42;90.66;99636.31;10235083;28;96710;-89
2022/05/24 08:55:42;;;;;;;1.23;0.60;;;15.50;99.90;;;14.58;90.34;99635.94;10271140;28;96502;-87
2022/05/24 09:00:45;;;;;;;1.48;0.95;;;15.60;99.90;;;14.75;89.74;99630.13;10268495;28;96585;-89
2022/05/24 09:06:11;;;;;;;0.55;0.55;;;15.80;99.90;;;14.81;88.38;99627.44;10254184;28;96732;-87
2022/05/24 09:12:10;;;;;;;1.65;0.70;;;15.90;99.90;;;15.00;87.98;99633.81;10239126;28;96616;-87
2022/05/24 09:17:53;;;;;;;0.95;0.80;;;16.00;99.90;;;15.07;87.02;99623.91;10247931;28;97459;-87
2022/05/24 09:23:29;;;;;;;0.70;0.70;;;16.10;99.90;;;15.29;87.41;99628.94;10236873;28;96650;-88
2022/05/24 09:28:58;;;;;;;0.93;0.52;;;16.30;99.90;;;15.32;86.15;99620.50;10229342;28;96718;-86
2022/05/24 09:34:20;;;;;;;0.82;0.68;;;16.40;99.90;;;15.35;85.10;99620.06;10238514;28;96552;-87
2022/05/24 09:39:38;;;;;;;0.77;0.75;;;16.40;99.90;;;15.37;84.14;99623.38;10255682;28;96483;-86
2022/05/24 09:44:48;;;;;;;1.02;0.85;;;16.50;99.90;;;15.44;84.74;99626.84;10238059;28;96629;-87
2022/05/24 09:50:13;;;;;;;0.85;0.52;;;16.50;99.90;;;15.49;83.25;99622.50;10268843;28;96610;-86
2022/05/24 09:55:23;;;;;;;0.52;0.52;;;16.60;99.90;;;15.71;83.58;99623.03;10265426;28;96642;-87
2022/05/24 10:00:26;;;;;;;2.57;0.53;;;16.70;99.90;;;15.99;82.74;99619.94;10268821;28;98926;-86
2022/05/24 10:05:30;;;;;;;0.55;0.52;;;16.90;99.90;;;16.18;81.22;99633.41;10254583;28;96709;-86
2022/05/24 10:10:43;;;;;;;0.45;0.45;;;17.10;99.90;;;16.41;80.80;99635.50;10258400;28;96833;-85
2022/05/24 10:16:07;;;;;;;0.70;0.50;;;17.30;99.90;;;16.55;79.74;99634.34;10269135;28;96722;-86
2022/05/24 10:21:19;;;;;;;0.52;0.30;;;17.40;99.90;;;16.71;79.33;99636.50;10254490;28;96514;-86
2022/05/24 10:27:13;;;;;;;0.50;0.40;;;17.60;99.90;;;16.84;77.55;99617.56;10253248;28;96483;-85
2022/05/24 10:38:39;;;;;;;1.10;0.60;;;17.90;99.90;;;17.32;76.79;99598.00;10236658;28;96683;-86
2022/05/24 10:43:58;;;;;;;0.45;0.45;;;18.20;99.90;;;17.51;75.59;99581.84;10253543;28;96522;-86
2022/05/24 10:49:44;;;;;;;0.60;0.50;;;18.40;99.90;;;17.69;75.23;99580.97;10235652;28;96461;-85
2022/05/24 10:55:05;;;;;;;0.45;0.40;;;18.60;99.90;;;17.83;73.77;99591.34;10242489;28;97775;-86
2022/05/24 11:00:23;;;;;;;0.52;0.45;;;18.70;99.90;;;18.08;73.27;99590.34;10265741;28;97751;-86
2022/05/24 11:05:42;;;;;;;1.50;1.08;;;18.90;99.90;;;18.27;71.46;99593.75;10267250;28;96543;-86
2022/05/24 11:10:49;;;;;;;0.80;0.40;;;19.20;99.90;;;18.41;70.52;99585.25;10236782;28;97015;-86
2022/05/24 11:16:04;;;;;;;0.22;0.20;;;19.30;99.90;;;18.64;69.62;99573.63;10251835;28;96503;-86
2022/05/24 11:21:32;;;;;;;0.30;0.17;;;19.50;99.90;;;18.98;67.78;99574.66;10251980;28;96643;-86
2022/05/24 11:26:41;;;;;;;0.40;0.30;;;19.80;99.90;;;19.08;66.40;99563.28;10235385;28;96600;-85
2022/05/24 11:31:52;;;;;;;0.40;0.30;;;19.90;99.90;;;19.28;65.39;99570.13;10234378;28;97493;-85
2022/05/24 11:37:35;;;;;;;0.50;0.43;;;20.10;99.90;;;19.39;62.77;99555.81;10234672;28;96509;-85
2022/05/24 11:42:40;;;;;;;0.30;0.10;;;20.20;99.90;;;19.49;59.06;99554.13;10237955;28;96970;-85
2022/05/24 11:47:46;;;;;;;0.32;0.20;;;20.30;99.90;;;19.83;60.74;99553.38;10251734;28;96432;-85
2022/05/24 11:53:11;;;;;;;0.63;0.40;;;20.50;99.90;;;20.04;58.08;99544.56;10250612;28;96941;-85
2022/05/24 11:58:19;;;;;;;0.47;0.28;;;20.80;99.00;;;20.27;56.29;99544.38;10214600;28;96649;-86
2022/05/24 12:09:14;;;;;;;0.20;0.20;;;21.10;96.00;;;20.67;57.63;99527.16;10263574;28;96503;-85
2022/05/24 12:14:37;;;;;;;0.10;0.10;;;21.40;95.80;;;21.19;55.66;99520.47;10238748;28;96651;-85
2022/05/24 12:19:44;;;;;;;0.40;0.30;;;21.80;95.90;;;21.31;53.07;99516.59;10257441;28;96428;-85
2022/05/24 12:24:54;;;;;;;0.20;0.20;;;22.10;92.40;;;21.28;53.53;99511.66;10270613;28;96595;-85
2022/05/24 12:30:23;;;;;;;0.20;0.20;;;22.20;91.70;;;21.28;52.90;99500.03;10252284;28;97102;-85
2022/05/24 12:35:26;;;;;;;0.95;0.45;;;22.30;90.30;;;21.32;53.48;99495.78;10256386;28;96653;-85
2022/05/24 12:40:32;;;;;;;0.55;0.32;;;22.20;90.80;;;21.61;53.37;99499.84;10240249;28;96501;-85
2022/05/24 12:45:40;;;;;;;0.10;0.10;;;22.30;90.30;;;21.58;51.47;99497.63;10255396;28;97591;-86
2022/05/24 12:50:44;;;;;;;0.50;0.20;;;22.40;87.20;;;21.55;51.32;99494.66;10269793;28;96581;-86
2022/05/24 12:56:17;;;;;;;0.40;0.40;;;22.50;85.30;;;21.59;51.43;99483.06;10272291;28;96479;-86
2022/05/24 13:01:30;;;;;;;0.32;0.30;;;22.50;85.20;;;21.77;52.08;99489.13;10254869;28;96557;-86
2022/05/24 13:06:39;;;;;;;0.38;0.20;;;22.70;85.00;;;22.17;51.57;99478.63;10256305;28;96515;-85
2022/05/24 13:11:45;;;;;;;0.50;0.43;;;23.00;85.10;;;22.28;49.98;99476.00;10270184;28;96734;-86
2022/05/24 13:16:48;;;;;;;0.20;0.13;;;23.20;81.70;;;22.06;48.64;99474.22;10270425;28;97585;-86
2022/05/24 13:21:55;;;;;;;1.02;0.40;;;23.10;78.90;;;22.09;49.74;99471.03;10253137;28;96626;-86
2022/05/24 13:27:05;;;;;;;0.50;0.30;;;23.10;79.00;;;22.35;50.57;99460.34;10269405;28;96775;-85
2022/05/24 13:37:54;;;;;;;0.30;0.20;;;23.40;80.00;;;22.46;49.11;99459.31;10254704;28;96626;-85
2022/05/24 13:42:58;;;;;;;0.28;0.20;;;23.40;77.30;;;22.33;48.46;99451.69;10232314;28;97786;-83
2022/05/24 13:48:22;;;;;;;0.40;0.30;;;23.40;75.90;;;22.26;50.94;99451.09;10247211;28;97133;-85
2022/05/24 13:53:39;;;;;;;1.05;0.47;;;23.20;77.50;;;22.37;49.86;99452.75;10238234;28;96618;-84
2022/05/24 13:58:48;;;;;;;1.10;0.20;;;23.40;77.00;;;22.62;49.74;99450.19;10267303;28;98505;-83
2022/05/24 14:04:00;;;;;;;0.28;0.28;;;23.50;77.30;;;23.02;49.52;99443.28;10283516;28;96652;-83
2022/05/24 14:09:03;;;;;;;0.80;0.60;;;23.80;77.20;;;23.17;47.13;99450.63;10233990;28;97336;-84
2022/05/24 14:14:06;;;;;;;0.85;0.40;;;24.10;74.30;;;23.15;48.16;99450.91;10251094;28;97391;-84
2022/05/24 14:19:09;;;;;;;0.50;0.38;;;24.10;74.40;;;23.40;47.08;99449.31;10251141;28;96496;-82
2022/05/24 14:24:17;;;;;;;0.47;0.35;;;24.30;73.80;;;23.55;46.86;99448.50;10261050;28;96663;-82
2022/05/24 14:29:20;;;;;;;0.40;0.40;;;24.50;73.00;;;23.74;46.82;99447.69;10273625;28;96716;-82
2022/05/24 14:34:24;;;;;;;0.50;0.32;;;24.60;72.70;;;23.63;46.01;99440.66;10285254;28;96604;-83
2022/05/24 14:39:27;;;;;;;0.60;0.40;;;24.60;71.40;;;23.48;45.69;99444.16;10252010;28;96555;-85
2022/05/24 14:44:37;;;;;;;0.63;0.47;;;24.50;70.80;;;23.31;45.88;99450.91;10255379;28;98390;-84
2022/05/24 14:49:41;;;;;;;0.38;0.20;;;24.30;70.50;;;23.01;46.53;99448.97;10267572;28;96758;-87
2022/05/24 14:54:48;;;;;;;0.40;0.40;;;24.10;70.60;;;23.03;46.21;99455.78;10226102;28;98235;-82
2022/05/24 14:59:51;;;;;;;0.73;0.30;;;24.10;70.10;;;23.07;45.02;99447.91;10234292;28;96676;-83
2022/05/24 15:04:55;;;;;;;1.17;0.50;;;24.20;68.30;;;23.08;46.95;99442.19;10266102;28;96883;-82
2022/05/24 15:15:29;;;;;;;0.40;0.30;;;24.30;68.50;;;23.15;45.48;99431.09;10247608;28;96785;-84
2022/05/24 15:20:34;;;;;;;1.08;0.28;;;24.30;67.90;;;23.12;45.72;99439.78;10233206;28;96483;-85
2022/05/24 15:25:47;;;;;;;0.45;0.32;;;24.30;67.80;;;22.99;46.30;99441.13;10245626;28;96815;-84
2022/05/24 15:30:50;;;;;;;0.68;0.50;;;24.10;68.00;;;22.71;45.41;99436.94;10236777;28;98162;-84
2022/05/24 15:35:53;;;;;;;0.88;0.63;;;23.90;67.20;;;22.47;47.00;99442.00;10256710;28;96620;-84
2022/05/24 15:40:57;;;;;;;0.50;0.30;;;23.70;68.00;;;22.39;48.11;99439.78;10230617;28;96699;-84
2022/05/24 15:46:00;;;;;;;1.77;0.70;;;23.50;69.00;;;22.22;47.96;99433.75;10250250;28;96782;-84
2022/05/24 15:51:03;;;;;;;0.40;0.35;;;23.40;69.10;;;22.10;47.41;99431.25;10237475;28;97438;-84
2022/05/24 15:56:06;;;;;;;0.38;0.25;;;23.20;68.60;;;21.91;49.04;99434.34;10247344;28;97348;-84
2022/05/24 16:01:13;;;;;;;0.60;0.40;;;23.00;69.80;;;21.83;49.40;99436.72;10245023;28;96638;-84
2022/05/24 16:11:48;;;;;;;0.43;0.25;;;22.80;71.40;;;21.63;50.55;99432.81;10236863;28;96491;-84
2022/05/24 16:16:55;;;;;;;0.32;0.22;;;22.70;71.70;;;21.54;51.20;99442.47;10239352;28;96579;-84
2022/05/24 16:22:02;;;;;;;1.08;0.50;;;22.60;72.20;;;21.46;51.14;99437.53;10255590;28;96622;-84
2022/05/24 16:27:06;;;;;;;0.20;0.20;;;22.50;72.40;;;21.37;50.52;99441.78;10263507;28;98314;-84
2022/05/24 16:32:09;;;;;;;1.33;0.73;;;22.50;72.30;;;21.26;50.94;99434.63;10242920;28;98048;-84
2022/05/24 16:37:13;;;;;;;0.57;0.35;;;22.40;72.60;;;21.21;51.51;99429.16;10263239;28;96510;-84
2022/05/24 16:42:15;;;;;;;1.85;0.20;;;22.30;72.90;;;21.14;51.66;99432.09;10249597;28;96590;-84
2022/05/24 16:47:18;;;;;;;0.45;0.40;;;22.30;73.20;;;21.07;52.00;99447.69;10237823;28;97497;-84
2022/05/24 16:52:21;;;;;;;1.38;0.40;;;22.20;73.60;;;20.97;52.70;99440.28;10271675;28;98589;-84
2022/05/24 17:02:55;;;;;;;0.40;0.32;;;22.00;74.40;;;20.75;53.85;99437.63;10267818;28;96804;-84
2022/05/24 17:08:02;;;;;;;0.88;0.60;;;21.90;74.90;;;20.64;53.54;99440.47;10267330;28;98534;-84
2022/05/24 17:13:10;;;;;;;0.40;0.30;;;21.80;75.00;;;20.54;54.00;99446.53;10259482;28;96687;-84
2022/05/24 17:18:13;;;;;;;1.02;0.63;;;21.70;75.30;;;20.47;54.53;99445.91;10244974;28;97542;-85
2022/05/24 17:23:16;;;;;;;1.52;0.60;;;21.60;75.80;;;20.41;55.06;99439.63;10263664;28;96545;-85
2022/05/24 17:28:19;;;;;;;0.77;0.43;;;21.60;76.60;;;20.35;55.75;99440.63;10266114;28;97012;-84
2022/05/24 17:33:28;;;;;;;1.92;0.60;;;21.50;77.00;;;20.27;55.63;99441.03;10242850;28;96753;-85
2022/05/24 17:38:32;;;;;;;0.20;0.20;;;21.40;77.30;;;20.21;55.68;99455.50;10232569;28;96577;-85
2022/05/24 17:43:38;;;;;;;0.30;0.22;;;21.40;77.60;;;20.15;55.64;99456.50;10244733;28;96637;-84
2022/05/24 17:48:45;;;;;;;1.02;0.47;;;21.30;77.70;;;20.09;56.16;99452.09;10212484;28;96901;-85
2022/05/24 17:53:47;;;;;;;0.60;0.45;;;21.20;78.50;;;20.01;56.70;99459.56;10221369;28;96663;-85
2022/05/24 17:58:50;;;;;;;0.50;0.35;;;21.20;78.90;;;19.93;56.61;99457.28;10250393;28;97606;-84
2022/05/24 18:03:53;;;;;;;0.77;0.30;;;21.10;79.50;;;19.85;57.35;99457.72;10265045;28;97936;-85
2022/05/24 18:08:56;;;;;;;0.50;0.30;;;21.10;79.80;;;19.77;57.38;99476.97;10239610;28;96670;-85
2022/05/24 18:14:00;;;;;;;0.30;0.30;;;21.00;80.30;;;19.71;59.22;99475.28;10236881;28;97396;-85
2022/05/24 18:19:03;;;;;;;0.73;0.43;;;20.90;82.10;;;19.58;59.13;99478.25;10251569;28;96632;-85
2022/05/24 18:24:25;;;;;;;1.00;0.40;;;20.80;82.80;;;19.43;60.23;99501.19;10229797;28;96527;-85
2022/05/24 18:34:52;;;;;;;1.10;0.60;;;20.40;84.90;;;19.08;61.30;99522.09;10257637;28;96965;-85
2022/05/24 18:39:56;;;;;;;2.05;1.38;;;20.30;86.40;;;18.90;62.43;99523.06;10249064;28;96545;-85
2022/05/24 18:44:58;;;;;;;2.60;1.27;;;20.10;88.70;;;18.71;63.21;99531.31;10265963;28;98453;-85
2022/05/24 18:50:03;;;;;;;1.17;0.60;;;19.80;89.40;;;18.58;64.18;99538.78;10251091;28;96617;-85
2022/05/24 18:55:06;;;;;;;0.88;0.65;;;19.70;90.40;;;18.43;64.48;99526.63;10289849;28;96556;-85
2022/05/24 19:00:27;;;;;;;1.40;0.70;;;19.60;90.60;;;18.26;64.91;99541.03;10227311;28;98223;-85
2022/05/24 19:05:30;;;;;;;0.70;0.55;;;19.40;91.50;;;18.12;66.10;99538.56;10207124;28;96743;-85
2022/05/24 19:10:33;;;;;;;0.40;0.35;;;19.30;92.20;;;18.02;66.65;99564.38;10252848;28;97421;-85
2022/05/24 19:15:36;;;;;;;1.30;0.88;;;19.20;93.20;;;17.91;67.18;99568.69;10231986;28;96707;-85
2022/05/24 19:20:39;;;;;;;0.70;0.50;;;19.00;93.40;;;17.85;67.09;99558.88;10224120;28;98527;-85
2022/05/24 19:25:43;;;;;;;1.15;0.70;;;19.00;94.00;;;17.80;67.73;99564.09;10247779;28;97320;-85
2022/05/24 19:30:49;;;;;;;2.85;0.80;;;18.90;94.70;;;17.75;68.17;99558.59;10263172;28;96431;-85
2022/05/24 19:35:56;;;;;;;1.42;0.70;;;18.90;95.20;;;17.67;68.58;99573.16;10238406;28;97353;-85
2022/05/24 19:46:33;;;;;;;1.23;0.50;;;18.80;96.30;;;17.56;69.80;99580.13;10259514;28;96997;-85
2022/05/24 19:51:38;;;;;;;0.65;0.50;;;18.70;97.30;;;17.51;69.90;99579.16;10249509;28;96656;-85
2022/05/24 19:56:41;;;;;;;1.02;0.63;;;18.70;98.30;;;17.47;70.32;99589.56;10251935;28;96555;-85
2022/05/24 20:01:43;;;;;;;0.43;0.32;;;18.60;98.60;;;17.42;70.06;99591.28;10268212;28;96638;-85
2022/05/24 20:06:47;;;;;;;0.80;0.80;;;18.60;98.70;;;17.38;70.11;99591.72;10233151;28;96505;-85
2022/05/24 20:11:50;;;;;;;0.60;0.50;;;18.50;99.20;;;17.35;70.54;99619.06;10201975;28;97414;-85
2022/05/24 20:16:53;;;;;;;0.93;0.75;;;18.50;99.90;;;17.29;70.73;99625.31;10239617;28;97390;-86
2022/05/24 20:21:59;;;;;;;0.80;0.57;;;18.50;99.90;;;17.22;70.56;99624.59;10229388;28;97356;-86
2022/05/24 20:27:05;;;;;;;0.68;0.60;;;18.40;99.80;;;17.21;70.82;99606.81;10263352;28;96801;-85
2022/05/24 20:32:09;;;;;;;1.45;1.27;;;18.40;99.90;;;17.17;70.92;99604.84;10206695;28;97506;-85
2022/05/24 20:37:17;;;;;;;0.90;0.50;;;18.30;99.90;;;17.15;71.27;99605.03;10264084;28;98465;-85
2022/05/24 20:42:21;;;;;;;2.95;0.82;;;18.30;99.90;;;17.09;71.42;99617.53;10257279;28;96434;-85
2022/05/24 20:47:23;;;;;;;1.00;0.80;;;18.30;99.90;;;17.04;71.93;99629.97;10255209;28;96832;-85
2022/05/24 20:52:27;;;;;;;2.08;0.80;;;18.20;99.90;;;17.00;72.42;99626.09;10272088;28;96827;-85
2022/05/24 20:57:30;;;;;;;1.08;0.63;;;18.20;99.90;;;16.95;72.68;99624.06;10202643;28;97955;-85
2022/05/24 21:03:14;;;;;;;1.52;0.75;;;18.10;99.90;;;16.94;73.31;99609.00;10255127;28;97342;-85
2022/05/24 21:08:19;;;;;;;1.08;0.60;;;18.10;99.90;;;16.93;73.23;99601.19;10239529;28;97299;-85
2022/05/24 21:13:28;;;;;;;1.05;0.90;;;18.10;99.90;;;16.85;73.51;99610.34;10255636;28;96567;-86
2022/05/24 21:18:31;;;;;;;1.02;0.57;;;18.00;99.90;;;16.85;73.52;99607.66;10254719;28;96570;-85
2022/05/24 21:23:34;;;;;;;0.70;0.60;;;18.00;99.90;;;16.82;73.49;99597.38;10280231;28;96947;-85
2022/05/24 21:28:43;;;;;;;0.55;0.35;;;17.90;99.90;;;16.79;74.01;99597.81;10257750;28;96558;-86
2022/05/24 21:33:47;;;;;;;1.85;0.65;;;17.90;99.90;;;16.78;73.74;99601.53;10252698;28;96607;-85
2022/05/24 21:38:50;;;;;;;0.60;0.50;;;17.90;99.90;;;16.76;73.38;99603.63;10262024;28;96619;-85
2022/05/24 21:43:53;;;;;;;0.98;0.52;;;17.90;99.90;;;16.76;72.90;99599.09;10238299;28;98216;-85
2022/05/24 21:48:56;;;;;;;0.88;0.25;;;17.90;99.90;;;16.77;72.55;99614.13;10253172;28;97712;-86
2022/05/24 21:53:59;;;;;;;0.82;0.40;;;17.90;99.90;;;16.73;73.00;99626.38;10228338;28;96491;-85
2022/05/24 21:59:02;;;;;;;0.70;0.50;;;17.90;99.90;;;16.74;72.86;99616.47;10224294;28;96918;-85
2022/05/24 22:04:06;;;;;;;0.43;0.43;;;17.90;99.90;;;16.71;72.53;99619.56;10244127;28;96711;-85
2022/05/24 22:09:09;;;;;;;0.50;0.40;;;17.90;99.90;;;16.62;72.97;99645.03;10249593;28;96635;-86
2022/05/24 22:14:12;;;;;;;1.38;0.50;;;17.80;99.90;;;16.50;73.18;99685.97;10244464;28;96640;-84
2022/05/24 22:19:15;;;;;;;1.58;0.70;;;17.60;99.90;;;16.41;72.53;99734.72;10275907;28;96758;-84
2022/05/24 22:24:18;;;;;;;0.40;0.30;;;17.50;99.90;;;16.47;71.75;99731.16;10251154;28;96812;-85
2022/05/24 22:29:21;;;;;;;1.15;0.50;;;17.50;99.90;;;16.62;72.26;99715.59;10251532;28;97747;-85
2022/05/24 22:34:24;;;;;;;0.52;0.30;;;17.60;99.90;;;16.56;75.33;99713.78;10253803;28;96480;-88